Terminal Aerodrome Forecast
Issued by NWS Mt. Holly, NJ

Home | Current Version | Previous Version | Text Only | Print | Product List | Glossary On
Versions: 1 2 3 4 5 6 7 8 9 10 11 12 13 14 15 16 17 18 19 20 21 22 23 24 25 26 27 28 29 30 31 32 33 34 35 36 37 38 39 40 41 42 43 44 45 46 47 48 49 50
077
FTUS41 KPHI 290115 AAA
TAFABE
TAF AMD
KABE 290115Z 2901/2924 00000KT P6SM -RA OVC100
      TEMPO 2902/2905 4SM RA BR BKN050
     FM290500 05006KT 4SM RA BR OVC050
      TEMPO 2907/2910 1SM +TSRA OVC009CB
     FM291100 02009KT P6SM VCSH OVC015
      TEMPO 2911/2914 4SM -SHRA
     FM291400 36010KT P6SM OVC015
     FM291600 36010KT P6SM BKN050=

USA.gov is the U.S. government's official web portal to all federal, state and local government web resources and services.